sensor_id;sensor_type;location;lat;lon;timestamp;temperature;humidity
41882;DHT22;27562;47.524;12.404;2023-01-10T00:00:39;1.50;99.90
41882;DHT22;27562;47.524;12.404;2023-01-10T00:03:06;1.50;99.90
41882;DHT22;27562;47.524;12.404;2023-01-10T00:05:32;1.50;99.90
41882;DHT22;27562;47.524;12.404;2023-01-10T00:07:58;1.50;99.90
41882;DHT22;27562;47.524;12.404;2023-01-10T00:10:24;1.50;99.90
41882;DHT22;27562;47.524;12.404;2023-01-10T00:12:49;1.50;99.90
41882;DHT22;27562;47.524;12.404;2023-01-10T00:15:34;1.50;99.90
41882;DHT22;27562;47.524;12.404;2023-01-10T00:18:00;1.40;99.90
41882;DHT22;27562;47.524;12.404;2023-01-10T00:20:26;1.40;99.90
41882;DHT22;27562;47.524;12.404;2023-01-10T00:22:52;1.40;99.90
41882;DHT22;27562;47.524;12.404;2023-01-10T00:25:17;1.40;99.90
41882;DHT22;27562;47.524;12.404;2023-01-10T00:27:49;1.40;99.90
41882;DHT22;27562;47.524;12.404;2023-01-10T00:30:20;1.40;99.90
41882;DHT22;27562;47.524;12.404;2023-01-10T00:32:46;1.40;99.90
41882;DHT22;27562;47.524;12.404;2023-01-10T00:35:11;1.40;99.90
41882;DHT22;27562;47.524;12.404;2023-01-10T00:37:37;1.30;99.90
41882;DHT22;27562;47.524;12.404;2023-01-10T00:40:04;1.30;99.90
41882;DHT22;27562;47.524;12.404;2023-01-10T00:42:32;1.30;99.90
41882;DHT22;27562;47.524;12.404;2023-01-10T00:45:16;1.30;99.90
41882;DHT22;27562;47.524;12.404;2023-01-10T00:47:44;1.30;99.90
41882;DHT22;27562;47.524;12.404;2023-01-10T00:50:09;1.30;99.90
41882;DHT22;27562;47.524;12.404;2023-01-10T00:52:36;1.20;99.90
41882;DHT22;27562;47.524;12.404;2023-01-10T00:55:01;1.20;99.90
41882;DHT22;27562;47.524;12.404;2023-01-10T00:57:27;1.20;99.90
41882;DHT22;27562;47.524;12.404;2023-01-10T00:59:52;1.20;99.90
41882;DHT22;27562;47.524;12.404;2023-01-10T01:02:18;1.20;99.90
41882;DHT22;27562;47.524;12.404;2023-01-10T01:04:43;1.20;99.90
41882;DHT22;27562;47.524;12.404;2023-01-10T01:07:09;1.20;99.90
41882;DHT22;27562;47.524;12.404;2023-01-10T01:09:34;1.20;99.90
41882;DHT22;27562;47.524;12.404;2023-01-10T01:12:20;1.20;99.90
41882;DHT22;27562;47.524;12.404;2023-01-10T01:14:45;1.20;99.90
41882;DHT22;27562;47.524;12.404;2023-01-10T01:17:11;1.20;99.90
41882;DHT22;27562;47.524;12.404;2023-01-10T01:19:37;1.10;99.90
41882;DHT22;27562;47.524;12.404;2023-01-10T01:22:02;1.10;99.90
41882;DHT22;27562;47.524;12.404;2023-01-10T01:24:28;1.10;99.90
41882;DHT22;27562;47.524;12.404;2023-01-10T01:26:53;1.10;99.90
41882;DHT22;27562;47.524;12.404;2023-01-10T01:29:19;1.20;99.90
41882;DHT22;27562;47.524;12.404;2023-01-10T01:31:44;1.20;99.90
41882;DHT22;27562;47.524;12.404;2023-01-10T01:34:10;1.20;99.90
41882;DHT22;27562;47.524;12.404;2023-01-10T01:36:35;1.20;99.90
41882;DHT22;27562;47.524;12.404;2023-01-10T01:39:01;1.20;99.90
41882;DHT22;27562;47.524;12.404;2023-01-10T01:41:28;1.20;99.90
41882;DHT22;27562;47.524;12.404;2023-01-10T01:44:16;1.20;99.90
41882;DHT22;27562;47.524;12.404;2023-01-10T01:46:43;1.20;99.90
41882;DHT22;27562;47.524;12.404;2023-01-10T01:49:12;1.20;99.90
41882;DHT22;27562;47.524;12.404;2023-01-10T01:51:39;1.20;99.90
41882;DHT22;27562;47.524;12.404;2023-01-10T01:54:06;1.20;99.90
41882;DHT22;27562;47.524;12.404;2023-01-10T01:56:34;1.20;99.90
41882;DHT22;27562;47.524;12.404;2023-01-10T01:59:03;1.20;99.90
41882;DHT22;27562;47.524;12.404;2023-01-10T02:01:30;1.20;99.90
41882;DHT22;27562;47.524;12.404;2023-01-10T02:04:06;1.20;99.90
41882;DHT22;27562;47.524;12.404;2023-01-10T02:06:32;1.10;99.90
41882;DHT22;27562;47.524;12.404;2023-01-10T02:09:02;1.10;99.90
41882;DHT22;27562;47.524;12.404;2023-01-10T02:11:29;1.10;99.90
41882;DHT22;27562;47.524;12.404;2023-01-10T02:13:55;1.10;99.90
41882;DHT22;27562;47.524;12.404;2023-01-10T02:16:22;1.10;99.90
41882;DHT22;27562;47.524;12.404;2023-01-10T02:18:47;1.20;99.90
41882;DHT22;27562;47.524;12.404;2023-01-10T02:33:56;1.10;99.90
41882;DHT22;27562;47.524;12.404;2023-01-10T02:36:28;1.10;99.90
41882;DHT22;27562;47.524;12.404;2023-01-10T02:38:57;1.10;99.90
41882;DHT22;27562;47.524;12.404;2023-01-10T02:44:11;1.10;99.90
41882;DHT22;27562;47.524;12.404;2023-01-10T02:46:38;1.10;99.90
41882;DHT22;27562;47.524;12.404;2023-01-10T02:49:05;1.10;99.90
41882;DHT22;27562;47.524;12.404;2023-01-10T02:51:30;1.10;99.90
41882;DHT22;27562;47.524;12.404;2023-01-10T03:02:06;1.10;99.90
41882;DHT22;27562;47.524;12.404;2023-01-10T03:05:01;1.10;99.90
41882;DHT22;27562;47.524;12.404;2023-01-10T03:10:13;1.10;99.90
41882;DHT22;27562;47.524;12.404;2023-01-10T03:12:44;1.10;99.90
41882;DHT22;27562;47.524;12.404;2023-01-10T03:15:12;1.10;99.90
41882;DHT22;27562;47.524;12.404;2023-01-10T03:17:38;1.10;99.90
41882;DHT22;27562;47.524;12.404;2023-01-10T03:20:05;1.00;99.90
41882;DHT22;27562;47.524;12.404;2023-01-10T03:22:32;1.00;99.90
41882;DHT22;27562;47.524;12.404;2023-01-10T03:24:59;1.00;99.90
41882;DHT22;27562;47.524;12.404;2023-01-10T03:27:38;1.00;99.90
41882;DHT22;27562;47.524;12.404;2023-01-10T03:32:33;1.00;99.90
41882;DHT22;27562;47.524;12.404;2023-01-10T03:34:59;1.00;99.90
41882;DHT22;27562;47.524;12.404;2023-01-10T03:42:42;0.90;99.90
41882;DHT22;27562;47.524;12.404;2023-01-10T03:45:30;1.00;99.90
41882;DHT22;27562;47.524;12.404;2023-01-10T03:47:57;1.00;99.90
41882;DHT22;27562;47.524;12.404;2023-01-10T03:50:25;1.00;99.90
41882;DHT22;27562;47.524;12.404;2023-01-10T03:52:51;1.00;99.90
41882;DHT22;27562;47.524;12.404;2023-01-10T03:55:18;1.10;99.90
41882;DHT22;27562;47.524;12.404;2023-01-10T03:57:44;1.10;99.90
41882;DHT22;27562;47.524;12.404;2023-01-10T04:00:10;1.00;99.90
41882;DHT22;27562;47.524;12.404;2023-01-10T04:02:36;1.00;99.90
41882;DHT22;27562;47.524;12.404;2023-01-10T04:05:02;1.00;99.90
41882;DHT22;27562;47.524;12.404;2023-01-10T04:07:28;1.00;99.90
41882;DHT22;27562;47.524;12.404;2023-01-10T04:09:53;1.00;99.90
41882;DHT22;27562;47.524;12.404;2023-01-10T04:12:19;1.00;99.90
41882;DHT22;27562;47.524;12.404;2023-01-10T04:14:44;1.00;99.90
41882;DHT22;27562;47.524;12.404;2023-01-10T04:17:11;1.00;99.90
41882;DHT22;27562;47.524;12.404;2023-01-10T04:19:37;1.00;99.90
41882;DHT22;27562;47.524;12.404;2023-01-10T04:22:03;1.00;99.90
41882;DHT22;27562;47.524;12.404;2023-01-10T04:24:30;1.00;99.90
41882;DHT22;27562;47.524;12.404;2023-01-10T04:26:55;1.00;99.90
41882;DHT22;27562;47.524;12.404;2023-01-10T04:29:21;1.00;99.90
41882;DHT22;27562;47.524;12.404;2023-01-10T04:31:46;1.00;99.90
41882;DHT22;27562;47.524;12.404;2023-01-10T04:34:12;1.00;99.90
41882;DHT22;27562;47.524;12.404;2023-01-10T04:36:38;1.00;99.90
41882;DHT22;27562;47.524;12.404;2023-01-10T04:39:03;1.00;99.90
41882;DHT22;27562;47.524;12.404;2023-01-10T04:41:29;1.00;99.90
41882;DHT22;27562;47.524;12.404;2023-01-10T04:43:54;1.00;99.90
41882;DHT22;27562;47.524;12.404;2023-01-10T04:46:20;1.00;99.90
41882;DHT22;27562;47.524;12.404;2023-01-10T04:48:46;1.00;99.90
41882;DHT22;27562;47.524;12.404;2023-01-10T04:51:11;1.00;99.90
41882;DHT22;27562;47.524;12.404;2023-01-10T04:53:37;1.00;99.90
41882;DHT22;27562;47.524;12.404;2023-01-10T04:56:03;1.00;99.90
41882;DHT22;27562;47.524;12.404;2023-01-10T04:58:33;1.00;99.90
41882;DHT22;27562;47.524;12.404;2023-01-10T05:00:59;1.00;99.90
41882;DHT22;27562;47.524;12.404;2023-01-10T05:03:24;1.00;99.90
41882;DHT22;27562;47.524;12.404;2023-01-10T05:05:50;0.90;99.90
41882;DHT22;27562;47.524;12.404;2023-01-10T05:08:15;0.90;99.90
41882;DHT22;27562;47.524;12.404;2023-01-10T05:10:41;0.90;99.90
41882;DHT22;27562;47.524;12.404;2023-01-10T05:13:06;0.90;99.90
41882;DHT22;27562;47.524;12.404;2023-01-10T05:15:32;1.00;99.90
41882;DHT22;27562;47.524;12.404;2023-01-10T05:17:58;1.00;99.90
41882;DHT22;27562;47.524;12.404;2023-01-10T05:20:23;1.00;99.90
41882;DHT22;27562;47.524;12.404;2023-01-10T05:22:49;1.00;99.90
41882;DHT22;27562;47.524;12.404;2023-01-10T05:25:15;0.90;99.90
41882;DHT22;27562;47.524;12.404;2023-01-10T05:27:41;0.90;99.90
41882;DHT22;27562;47.524;12.404;2023-01-10T05:30:10;0.90;99.90
41882;DHT22;27562;47.524;12.404;2023-01-10T05:32:36;0.90;99.90
41882;DHT22;27562;47.524;12.404;2023-01-10T05:35:02;0.80;99.90
41882;DHT22;27562;47.524;12.404;2023-01-10T05:37:28;0.80;99.90
41882;DHT22;27562;47.524;12.404;2023-01-10T05:39:53;0.80;99.90
41882;DHT22;27562;47.524;12.404;2023-01-10T05:42:19;0.80;99.90
41882;DHT22;27562;47.524;12.404;2023-01-10T05:44:44;0.80;99.90
41882;DHT22;27562;47.524;12.404;2023-01-10T05:47:10;0.80;99.90
41882;DHT22;27562;47.524;12.404;2023-01-10T05:49:35;0.80;99.90
41882;DHT22;27562;47.524;12.404;2023-01-10T05:52:01;0.80;99.90
41882;DHT22;27562;47.524;12.404;2023-01-10T05:54:26;0.80;99.90
41882;DHT22;27562;47.524;12.404;2023-01-10T05:56:54;0.90;99.90
41882;DHT22;27562;47.524;12.404;2023-01-10T05:59:19;0.90;99.90
41882;DHT22;27562;47.524;12.404;2023-01-10T06:01:45;0.90;99.90
41882;DHT22;27562;47.524;12.404;2023-01-10T06:04:10;0.90;99.90
41882;DHT22;27562;47.524;12.404;2023-01-10T06:06:36;0.90;99.90
41882;DHT22;27562;47.524;12.404;2023-01-10T06:09:01;0.90;99.90
41882;DHT22;27562;47.524;12.404;2023-01-10T06:11:27;0.80;99.90
41882;DHT22;27562;47.524;12.404;2023-01-10T06:13:56;0.80;99.90
41882;DHT22;27562;47.524;12.404;2023-01-10T06:16:21;0.80;99.90
41882;DHT22;27562;47.524;12.404;2023-01-10T06:18:47;0.80;99.90
41882;DHT22;27562;47.524;12.404;2023-01-10T06:21:13;0.80;99.90
41882;DHT22;27562;47.524;12.404;2023-01-10T06:23:38;0.80;99.90
41882;DHT22;27562;47.524;12.404;2023-01-10T06:26:04;0.80;99.90
41882;DHT22;27562;47.524;12.404;2023-01-10T06:28:29;0.80;99.90
41882;DHT22;27562;47.524;12.404;2023-01-10T06:30:55;0.80;99.90
41882;DHT22;27562;47.524;12.404;2023-01-10T06:33:21;0.80;99.90
41882;DHT22;27562;47.524;12.404;2023-01-10T06:35:46;0.80;99.90
41882;DHT22;27562;47.524;12.404;2023-01-10T06:38:12;0.80;99.90
41882;DHT22;27562;47.524;12.404;2023-01-10T06:40:38;0.80;99.90
41882;DHT22;27562;47.524;12.404;2023-01-10T06:43:04;0.90;99.90
41882;DHT22;27562;47.524;12.404;2023-01-10T06:45:29;0.90;99.90
41882;DHT22;27562;47.524;12.404;2023-01-10T06:47:55;0.90;99.90
41882;DHT22;27562;47.524;12.404;2023-01-10T06:50:20;0.90;99.90
41882;DHT22;27562;47.524;12.404;2023-01-10T06:52:53;0.90;99.90
41882;DHT22;27562;47.524;12.404;2023-01-10T06:55:19;0.90;99.90
41882;DHT22;27562;47.524;12.404;2023-01-10T06:57:44;0.90;99.90
41882;DHT22;27562;47.524;12.404;2023-01-10T07:00:10;1.00;99.90
41882;DHT22;27562;47.524;12.404;2023-01-10T07:02:36;1.00;99.90
41882;DHT22;27562;47.524;12.404;2023-01-10T07:05:01;1.00;99.90
41882;DHT22;27562;47.524;12.404;2023-01-10T07:07:27;1.00;99.90
41882;DHT22;27562;47.524;12.404;2023-01-10T07:09:53;1.00;99.90
41882;DHT22;27562;47.524;12.404;2023-01-10T07:12:18;1.00;99.90
41882;DHT22;27562;47.524;12.404;2023-01-10T07:14:44;1.00;99.90
41882;DHT22;27562;47.524;12.404;2023-01-10T07:17:09;1.00;99.90
41882;DHT22;27562;47.524;12.404;2023-01-10T07:19:35;0.90;99.90
41882;DHT22;27562;47.524;12.404;2023-01-10T07:22:02;0.90;99.90
41882;DHT22;27562;47.524;12.404;2023-01-10T07:24:27;1.00;99.90
41882;DHT22;27562;47.524;12.404;2023-01-10T07:26:54;1.00;99.90
41882;DHT22;27562;47.524;12.404;2023-01-10T07:29:20;1.00;99.90
41882;DHT22;27562;47.524;12.404;2023-01-10T07:31:45;0.90;99.90
41882;DHT22;27562;47.524;12.404;2023-01-10T07:34:11;0.90;99.90
41882;DHT22;27562;47.524;12.404;2023-01-10T07:36:36;0.90;99.90
41882;DHT22;27562;47.524;12.404;2023-01-10T07:39:02;0.90;99.90
41882;DHT22;27562;47.524;12.404;2023-01-10T07:41:28;0.90;99.90
41882;DHT22;27562;47.524;12.404;2023-01-10T07:43:53;1.00;99.90
41882;DHT22;27562;47.524;12.404;2023-01-10T07:46:19;1.00;99.90
41882;DHT22;27562;47.524;12.404;2023-01-10T07:48:45;1.00;99.90
41882;DHT22;27562;47.524;12.404;2023-01-10T07:51:11;0.90;99.90
41882;DHT22;27562;47.524;12.404;2023-01-10T07:53:36;0.90;99.90
41882;DHT22;27562;47.524;12.404;2023-01-10T07:56:02;0.90;99.90
41882;DHT22;27562;47.524;12.404;2023-01-10T07:58:28;0.90;99.90
41882;DHT22;27562;47.524;12.404;2023-01-10T08:00:58;0.90;99.90
41882;DHT22;27562;47.524;12.404;2023-01-10T08:03:24;0.90;99.90
41882;DHT22;27562;47.524;12.404;2023-01-10T08:05:49;0.90;99.90
41882;DHT22;27562;47.524;12.404;2023-01-10T08:08:15;1.00;99.90
41882;DHT22;27562;47.524;12.404;2023-01-10T08:10:41;1.00;99.90
41882;DHT22;27562;47.524;12.404;2023-01-10T08:13:07;1.00;99.90
41882;DHT22;27562;47.524;12.404;2023-01-10T08:15:32;1.00;99.90
41882;DHT22;27562;47.524;12.404;2023-01-10T08:17:59;1.00;99.90
41882;DHT22;27562;47.524;12.404;2023-01-10T08:20:25;1.10;99.90
41882;DHT22;27562;47.524;12.404;2023-01-10T08:22:51;1.10;99.90
41882;DHT22;27562;47.524;12.404;2023-01-10T08:25:16;1.10;99.90
41882;DHT22;27562;47.524;12.404;2023-01-10T08:27:42;1.10;99.90
41882;DHT22;27562;47.524;12.404;2023-01-10T08:30:07;1.00;99.90
41882;DHT22;27562;47.524;12.404;2023-01-10T08:32:33;1.00;99.90
41882;DHT22;27562;47.524;12.404;2023-01-10T08:34:59;1.00;99.90
41882;DHT22;27562;47.524;12.404;2023-01-10T08:37:24;1.00;99.90
41882;DHT22;27562;47.524;12.404;2023-01-10T08:39:50;1.00;99.90
41882;DHT22;27562;47.524;12.404;2023-01-10T08:42:15;1.10;99.90
41882;DHT22;27562;47.524;12.404;2023-01-10T08:44:42;1.00;99.90
41882;DHT22;27562;47.524;12.404;2023-01-10T08:47:07;1.00;99.90
41882;DHT22;27562;47.524;12.404;2023-01-10T08:49:33;1.00;99.90
41882;DHT22;27562;47.524;12.404;2023-01-10T08:51:59;1.00;99.90
41882;DHT22;27562;47.524;12.404;2023-01-10T08:54:25;1.00;99.90
41882;DHT22;27562;47.524;12.404;2023-01-10T08:56:50;1.00;99.90
41882;DHT22;27562;47.524;12.404;2023-01-10T08:59:16;1.00;99.90
41882;DHT22;27562;47.524;12.404;2023-01-10T09:01:42;1.00;99.90
41882;DHT22;27562;47.524;12.404;2023-01-10T09:04:07;1.00;99.90
41882;DHT22;27562;47.524;12.404;2023-01-10T09:06:33;1.00;99.90
41882;DHT22;27562;47.524;12.404;2023-01-10T09:08:58;1.00;99.90
41882;DHT22;27562;47.524;12.404;2023-01-10T09:11:24;1.00;99.90
41882;DHT22;27562;47.524;12.404;2023-01-10T09:13:49;1.00;99.90
41882;DHT22;27562;47.524;12.404;2023-01-10T09:16:15;1.00;99.90
41882;DHT22;27562;47.524;12.404;2023-01-10T09:18:41;1.00;99.90
41882;DHT22;27562;47.524;12.404;2023-01-10T09:21:07;1.00;99.90
41882;DHT22;27562;47.524;12.404;2023-01-10T09:23:32;1.00;99.90
41882;DHT22;27562;47.524;12.404;2023-01-10T09:25:58;1.00;99.90
41882;DHT22;27562;47.524;12.404;2023-01-10T09:28:24;1.00;99.90
41882;DHT22;27562;47.524;12.404;2023-01-10T09:30:50;1.00;99.90
41882;DHT22;27562;47.524;12.404;2023-01-10T09:33:16;1.00;99.90
41882;DHT22;27562;47.524;12.404;2023-01-10T09:35:41;1.00;99.90
41882;DHT22;27562;47.524;12.404;2023-01-10T09:38:10;1.00;99.90
41882;DHT22;27562;47.524;12.404;2023-01-10T09:53:30;1.10;99.90
41882;DHT22;27562;47.524;12.404;2023-01-10T09:55:57;1.10;99.90
41882;DHT22;27562;47.524;12.404;2023-01-10T09:58:28;1.20;99.90
41882;DHT22;27562;47.524;12.404;2023-01-10T10:00:56;1.10;99.90
41882;DHT22;27562;47.524;12.404;2023-01-10T10:06:08;1.10;99.90
41882;DHT22;27562;47.524;12.404;2023-01-10T10:08:35;1.10;99.90
41882;DHT22;27562;47.524;12.404;2023-01-10T10:23:47;1.20;99.90
41882;DHT22;27562;47.524;12.404;2023-01-10T10:26:26;1.20;99.90
41882;DHT22;27562;47.524;12.404;2023-01-10T10:29:02;1.20;99.90
41882;DHT22;27562;47.524;12.404;2023-01-10T10:34:00;1.40;99.90
41882;DHT22;27562;47.524;12.404;2023-01-10T10:36:42;1.40;99.90
41882;DHT22;27562;47.524;12.404;2023-01-10T10:39:11;1.40;99.90
41882;DHT22;27562;47.524;12.404;2023-01-10T10:41:39;1.40;99.90
41882;DHT22;27562;47.524;12.404;2023-01-10T10:44:12;1.40;99.90
41882;DHT22;27562;47.524;12.404;2023-01-10T10:46:42;1.40;99.90
41882;DHT22;27562;47.524;12.404;2023-01-10T10:49:17;1.30;99.90
41882;DHT22;27562;47.524;12.404;2023-01-10T10:51:50;1.40;99.90
41882;DHT22;27562;47.524;12.404;2023-01-10T10:54:16;1.40;99.90
41882;DHT22;27562;47.524;12.404;2023-01-10T10:56:41;1.50;99.90
41882;DHT22;27562;47.524;12.404;2023-01-10T10:59:08;1.50;99.90
41882;DHT22;27562;47.524;12.404;2023-01-10T11:01:33;1.50;99.90
41882;DHT22;27562;47.524;12.404;2023-01-10T11:04:07;1.40;99.90
41882;DHT22;27562;47.524;12.404;2023-01-10T11:06:33;1.50;99.90
41882;DHT22;27562;47.524;12.404;2023-01-10T11:09:00;1.50;99.90
41882;DHT22;27562;47.524;12.404;2023-01-10T11:11:32;1.50;99.90
41882;DHT22;27562;47.524;12.404;2023-01-10T11:14:05;1.50;99.90
41882;DHT22;27562;47.524;12.404;2023-01-10T11:16:32;1.40;99.90
41882;DHT22;27562;47.524;12.404;2023-01-10T11:21:44;1.50;99.90
41882;DHT22;27562;47.524;12.404;2023-01-10T11:24:19;1.50;99.90
41882;DHT22;27562;47.524;12.404;2023-01-10T11:26:45;1.50;99.90
41882;DHT22;27562;47.524;12.404;2023-01-10T11:31:42;1.60;99.90
41882;DHT22;27562;47.524;12.404;2023-01-10T11:34:19;1.70;99.90
41882;DHT22;27562;47.524;12.404;2023-01-10T11:39:17;1.70;99.90
41882;DHT22;27562;47.524;12.404;2023-01-10T11:41:42;1.70;99.90
41882;DHT22;27562;47.524;12.404;2023-01-10T11:44:15;1.60;99.90
41882;DHT22;27562;47.524;12.404;2023-01-10T11:46:42;1.70;99.90
41882;DHT22;27562;47.524;12.404;2023-01-10T11:49:09;1.70;99.90
41882;DHT22;27562;47.524;12.404;2023-01-10T11:51:42;1.70;99.90
41882;DHT22;27562;47.524;12.404;2023-01-10T11:54:14;1.70;99.90
41882;DHT22;27562;47.524;12.404;2023-01-10T11:56:41;1.70;99.90
41882;DHT22;27562;47.524;12.404;2023-01-10T11:59:13;1.70;99.90
41882;DHT22;27562;47.524;12.404;2023-01-10T12:01:43;1.70;99.90
41882;DHT22;27562;47.524;12.404;2023-01-10T12:04:13;1.70;99.90
41882;DHT22;27562;47.524;12.404;2023-01-10T12:06:47;1.70;99.90
41882;DHT22;27562;47.524;12.404;2023-01-10T12:12:00;1.70;99.90
41882;DHT22;27562;47.524;12.404;2023-01-10T12:14:26;1.70;99.90
41882;DHT22;27562;47.524;12.404;2023-01-10T12:16:59;1.80;99.90
41882;DHT22;27562;47.524;12.404;2023-01-10T12:19:25;1.80;99.90
41882;DHT22;27562;47.524;12.404;2023-01-10T12:21:51;1.80;99.90
41882;DHT22;27562;47.524;12.404;2023-01-10T12:24:23;1.80;99.90
41882;DHT22;27562;47.524;12.404;2023-01-10T12:26:50;1.80;99.90
41882;DHT22;27562;47.524;12.404;2023-01-10T12:29:22;1.80;99.90
41882;DHT22;27562;47.524;12.404;2023-01-10T12:31:49;1.70;99.90
41882;DHT22;27562;47.524;12.404;2023-01-10T12:34:20;1.70;99.90
41882;DHT22;27562;47.524;12.404;2023-01-10T12:37:08;1.70;99.90
41882;DHT22;27562;47.524;12.404;2023-01-10T12:39:33;1.60;99.90
41882;DHT22;27562;47.524;12.404;2023-01-10T12:45:13;1.60;99.90
41882;DHT22;27562;47.524;12.404;2023-01-10T12:47:42;1.50;99.90
41882;DHT22;27562;47.524;12.404;2023-01-10T12:50:12;1.50;99.90
41882;DHT22;27562;47.524;12.404;2023-01-10T12:52:43;1.50;99.90
41882;DHT22;27562;47.524;12.404;2023-01-10T12:55:12;1.60;99.90
41882;DHT22;27562;47.524;12.404;2023-01-10T12:57:38;1.60;99.90
41882;DHT22;27562;47.524;12.404;2023-01-10T13:00:05;1.50;99.90
41882;DHT22;27562;47.524;12.404;2023-01-10T13:02:40;1.50;99.90
41882;DHT22;27562;47.524;12.404;2023-01-10T13:05:14;1.50;99.90
41882;DHT22;27562;47.524;12.404;2023-01-10T13:07:40;1.50;99.90
41882;DHT22;27562;47.524;12.404;2023-01-10T13:10:06;1.50;99.90
41882;DHT22;27562;47.524;12.404;2023-01-10T13:12:37;1.60;99.90
41882;DHT22;27562;47.524;12.404;2023-01-10T13:15:08;1.60;99.90
41882;DHT22;27562;47.524;12.404;2023-01-10T13:17:41;1.60;99.90
41882;DHT22;27562;47.524;12.404;2023-01-10T13:22:40;1.70;99.90
41882;DHT22;27562;47.524;12.404;2023-01-10T13:25:17;1.60;99.90
41882;DHT22;27562;47.524;12.404;2023-01-10T13:27:43;1.70;99.90
41882;DHT22;27562;47.524;12.404;2023-01-10T13:30:22;1.60;99.90
41882;DHT22;27562;47.524;12.404;2023-01-10T13:32:52;1.60;99.90
41882;DHT22;27562;47.524;12.404;2023-01-10T13:35:20;1.60;99.90
41882;DHT22;27562;47.524;12.404;2023-01-10T13:37:52;1.60;99.90
41882;DHT22;27562;47.524;12.404;2023-01-10T13:40:22;1.60;99.90
41882;DHT22;27562;47.524;12.404;2023-01-10T13:45:45;1.60;99.90
41882;DHT22;27562;47.524;12.404;2023-01-10T13:48:23;1.70;99.90
41882;DHT22;27562;47.524;12.404;2023-01-10T13:51:35;1.70;99.90
41882;DHT22;27562;47.524;12.404;2023-01-10T13:53:39;1.80;99.90
41882;DHT22;27562;47.524;12.404;2023-01-10T13:56:26;1.70;99.90
41882;DHT22;27562;47.524;12.404;2023-01-10T13:58:51;1.70;99.90
41882;DHT22;27562;47.524;12.404;2023-01-10T14:01:36;1.60;99.90
41882;DHT22;27562;47.524;12.404;2023-01-10T14:04:21;1.70;99.90
41882;DHT22;27562;47.524;12.404;2023-01-10T14:09:34;1.70;99.90
41882;DHT22;27562;47.524;12.404;2023-01-10T14:12:01;1.70;99.90
41882;DHT22;27562;47.524;12.404;2023-01-10T14:14:29;1.60;99.90
41882;DHT22;27562;47.524;12.404;2023-01-10T14:16:55;1.60;99.90
41882;DHT22;27562;47.524;12.404;2023-01-10T14:19:25;1.60;99.90
41882;DHT22;27562;47.524;12.404;2023-01-10T14:21:56;1.60;99.90
41882;DHT22;27562;47.524;12.404;2023-01-10T14:24:23;1.60;99.90
41882;DHT22;27562;47.524;12.404;2023-01-10T14:26:49;1.50;99.90
41882;DHT22;27562;47.524;12.404;2023-01-10T14:29:16;1.50;99.90
41882;DHT22;27562;47.524;12.404;2023-01-10T14:31:46;1.50;99.90
41882;DHT22;27562;47.524;12.404;2023-01-10T14:34:23;1.50;99.90
41882;DHT22;27562;47.524;12.404;2023-01-10T14:36:58;1.40;99.90
41882;DHT22;27562;47.524;12.404;2023-01-10T14:39:25;1.40;99.90
41882;DHT22;27562;47.524;12.404;2023-01-10T14:41:52;1.40;99.90
41882;DHT22;27562;47.524;12.404;2023-01-10T14:44:35;1.40;99.90
41882;DHT22;27562;47.524;12.404;2023-01-10T14:47:03;1.40;99.90
41882;DHT22;27562;47.524;12.404;2023-01-10T14:49:29;1.30;99.90
41882;DHT22;27562;47.524;12.404;2023-01-10T14:57:30;1.40;99.90
41882;DHT22;27562;47.524;12.404;2023-01-10T15:02:48;1.30;99.90
41882;DHT22;27562;47.524;12.404;2023-01-10T15:05:15;1.30;99.90
41882;DHT22;27562;47.524;12.404;2023-01-10T15:07:42;1.30;99.90
41882;DHT22;27562;47.524;12.404;2023-01-10T15:10:30;1.30;99.90
41882;DHT22;27562;47.524;12.404;2023-01-10T15:12:54;1.30;99.90
41882;DHT22;27562;47.524;12.404;2023-01-10T15:15:22;1.30;99.90
41882;DHT22;27562;47.524;12.404;2023-01-10T15:17:48;1.30;99.90
41882;DHT22;27562;47.524;12.404;2023-01-10T15:20:15;1.30;99.90
41882;DHT22;27562;47.524;12.404;2023-01-10T15:22:42;1.20;99.90
41882;DHT22;27562;47.524;12.404;2023-01-10T15:27:43;1.20;99.90
41882;DHT22;27562;47.524;12.404;2023-01-10T15:30:10;1.20;99.90
41882;DHT22;27562;47.524;12.404;2023-01-10T15:32:36;1.20;99.90
41882;DHT22;27562;47.524;12.404;2023-01-10T15:35:04;1.20;99.90
41882;DHT22;27562;47.524;12.404;2023-01-10T15:37:31;1.20;99.90
41882;DHT22;27562;47.524;12.404;2023-01-10T15:40:00;1.20;99.90
41882;DHT22;27562;47.524;12.404;2023-01-10T15:42:26;1.20;99.90
41882;DHT22;27562;47.524;12.404;2023-01-10T15:44:52;1.20;99.90
41882;DHT22;27562;47.524;12.404;2023-01-10T15:49:59;1.20;99.90
41882;DHT22;27562;47.524;12.404;2023-01-10T15:52:24;1.20;99.90
41882;DHT22;27562;47.524;12.404;2023-01-10T15:54:50;1.30;99.90
41882;DHT22;27562;47.524;12.404;2023-01-10T15:59:47;1.30;99.90
41882;DHT22;27562;47.524;12.404;2023-01-10T16:02:19;1.30;99.90
41882;DHT22;27562;47.524;12.404;2023-01-10T16:04:49;1.30;99.90
41882;DHT22;27562;47.524;12.404;2023-01-10T16:09:49;1.20;99.90
41882;DHT22;27562;47.524;12.404;2023-01-10T16:12:25;1.20;99.90
41882;DHT22;27562;47.524;12.404;2023-01-10T16:15:13;1.20;99.90
41882;DHT22;27562;47.524;12.404;2023-01-10T16:17:41;1.20;99.90
41882;DHT22;27562;47.524;12.404;2023-01-10T16:20:10;1.20;99.90
41882;DHT22;27562;47.524;12.404;2023-01-10T16:22:36;1.20;99.90
41882;DHT22;27562;47.524;12.404;2023-01-10T16:25:03;1.20;99.90
41882;DHT22;27562;47.524;12.404;2023-01-10T16:27:29;1.20;99.90
41882;DHT22;27562;47.524;12.404;2023-01-10T16:29:55;1.20;99.90
41882;DHT22;27562;47.524;12.404;2023-01-10T16:32:20;1.30;99.90
41882;DHT22;27562;47.524;12.404;2023-01-10T16:34:46;1.30;99.90
41882;DHT22;27562;47.524;12.404;2023-01-10T16:37:13;1.30;99.90
41882;DHT22;27562;47.524;12.404;2023-01-10T16:39:38;1.30;99.90
41882;DHT22;27562;47.524;12.404;2023-01-10T16:42:04;1.20;99.90
41882;DHT22;27562;47.524;12.404;2023-01-10T16:44:48;1.20;99.90
41882;DHT22;27562;47.524;12.404;2023-01-10T16:47:13;1.20;99.90
41882;DHT22;27562;47.524;12.404;2023-01-10T16:49:39;1.10;99.90
41882;DHT22;27562;47.524;12.404;2023-01-10T16:52:06;1.10;99.90
41882;DHT22;27562;47.524;12.404;2023-01-10T16:54:31;1.10;99.90
41882;DHT22;27562;47.524;12.404;2023-01-10T16:57:00;1.10;99.90
41882;DHT22;27562;47.524;12.404;2023-01-10T16:59:26;1.10;99.90
41882;DHT22;27562;47.524;12.404;2023-01-10T17:01:55;1.10;99.90
41882;DHT22;27562;47.524;12.404;2023-01-10T17:04:25;1.10;99.90
41882;DHT22;27562;47.524;12.404;2023-01-10T17:06:52;1.10;99.90
41882;DHT22;27562;47.524;12.404;2023-01-10T17:09:22;1.00;99.90
41882;DHT22;27562;47.524;12.404;2023-01-10T17:11:49;1.00;99.90
41882;DHT22;27562;47.524;12.404;2023-01-10T17:14:16;1.00;99.90
41882;DHT22;27562;47.524;12.404;2023-01-10T17:16:42;1.00;99.90
41882;DHT22;27562;47.524;12.404;2023-01-10T17:19:07;1.00;99.90